Delta, Utah Weather observations

Data are for observation ending at time listed.
 Day   Time    Ave.   Ave.  Ave.  Vector   Max.   Stn.    Total    Solar   Ave.  
  of    of     Air    Rel.  Wind   Wind    Wind   Baro.  Precip.   Rad.    Soil  
Year   Day     Temp.  Hum.  Speed  Dir.    Gust   Pres.                    Temp. 
2016   (MST)    F      %     mph   deg.    mph     mb.     in.     W/m2     F   
------------------------------------------------------------------------------
 151    4:50   58.8    53    2.3   198      4.7   861.6    0.00       0    68.2
 151    5:00   57.2    58    2.5   231      5.2   861.6    0.00       0    68.1
 151    5:10   56.9    60    1.8   265      3.8   861.5    0.00       0    68.1
 151    5:20   56.3    62    0.6   160      2.8   861.4    0.00       3    68.0
 151    5:30   56.0    63    1.6   197      3.7   861.6    0.00       6    68.1
 151    5:40   55.5    64    0.9   206      3.1   861.7    0.00       9    68.0
 151    5:50   55.6    63    1.7   216      3.4   861.7    0.00      15    67.9
 151    6:00   56.2    60    1.9   231      4.6   861.7    0.00      51    67.9
 151    6:10   57.1    58    1.3   233      2.6   861.6    0.00      92    67.9
 151    6:20   57.5    58    1.7   240      3.4   861.7    0.00      62    67.7
 151    6:30   57.7    60    2.0   260      4.2   861.7    0.00     158    67.7
 151    6:40   58.9    59    2.2   257      4.7   861.8    0.00     180    67.7
 151    6:50   59.6    58    2.3   252      5.1   861.9    0.00     205    67.7
 151    7:00   60.4    58    1.9   261      3.9   861.9    0.00     234    67.7
 151    7:10   61.5    55    1.9   287      3.9   861.9    0.00     252    67.6
 151    7:20   62.1    52    1.8   268      4.7   861.9    0.00     273    67.6
 151    7:30   62.4    52    1.8   270      3.7   861.9    0.00     305    67.6
 151    7:40   62.8    52    1.4   201      3.4   861.9    0.00     331    67.6
 151    7:50   64.3    50    0.5   148      1.5   861.9    0.00     357    67.7
 151    8:00   65.8    45    1.3    45      3.4   862.0    0.00     383    67.6
 151    8:10   65.1    46    1.4    51      3.8   862.0    0.00     408    67.7
 151    8:20   66.3    46    1.0    80      2.6   862.0    0.00     434    67.7
 151    8:30   67.5    44    1.3    76      4.0   861.9    0.00     459    67.8
 151    8:40   67.9    42    1.8    67      4.5   861.9    0.00     486    67.9
 151    8:50   67.6    41    2.0    30      5.2   861.9    0.00     510    68.0
 151    9:00   68.7    40    1.8    75      4.7   861.9    0.00     534    68.1
 151    9:10   69.0    38    1.0    78      3.6   861.9    0.00     557    68.2
 151    9:20   69.6    38    1.6    85      4.3   861.8    0.00     578    68.4
 151    9:30   69.6    38    1.6   112      4.3   861.8    0.00     599    68.5
 151    9:40   70.1    36    1.9    30      5.1   861.8    0.00     620    68.7
 151    9:50   71.3    35    1.3    48      3.5   861.7    0.00     640    68.9
 151   10:00   72.2    32    1.4   355      3.7   861.7    0.00     655    69.1
 151   10:10   72.4    32    2.1   322      6.5   861.7    0.00     672    69.3
 151   10:20   71.8    32    2.2   127      5.0   861.7    0.00     686    69.6
 151   10:30   72.4    31    2.5    27      6.7   861.6    0.00     700    69.9
 151   10:40   72.8    30    3.5   327      6.9   861.5    0.00     713    70.1
 151   10:50   73.2    30    3.3    19      7.7   861.5    0.00     726    70.4
 151   11:00   73.5    28    2.8   300      7.2   861.4    0.00     739    70.7
 151   11:10   74.1    28    2.4    15      5.9   861.4    0.00     751    70.9
 151   11:20   74.2    28    3.3   312      9.1   861.4    0.00     759    71.3
 151   11:30   73.7    28    2.1   256      5.1   861.4    0.00     765    71.5
 151   11:40   75.0    29    2.2   346      5.4   861.3    0.00     770    71.7
 151   11:50   75.8    26    1.9    19      7.2   861.3    0.00     723    72.0
 151   12:00   75.9    26    3.1   356      8.8   861.1    0.00     786    72.3
 151   12:10   76.1    26    3.8    11      7.4   861.1    0.00     817    72.7
 151   12:20   76.7    24    3.5   302      8.0   861.1    0.00     878    73.0
 151   12:30   77.3    22    3.1   295      9.0   860.9    0.00     844    73.2
 151   12:40   78.0    22    3.6   356      8.6   860.9    0.00     812    73.4
 151   12:50   76.6    20    3.6   355      8.1   860.8    0.00     689    73.7
 151   13:00   76.7    22    1.5   285      5.7   860.6    0.00     814    74.0
 151   13:10   77.8    19    2.2     1      5.6   860.6    0.00     519    74.3
 151   13:20   76.9    21    3.3   316      9.1   860.5    0.00     634    74.5
 151   13:30   78.7    19    2.4   351      9.5   860.4    0.00     767    74.8
 151   13:40   77.5    19    2.8   265      8.9   860.3    0.00     759    75.0
 151   13:50   78.1    20    3.2   279      8.0   860.1    0.00     776    75.2
 151   14:00   78.3    20    4.9   306     10.3   860.0    0.00     786    75.4
 151   14:10   78.2    19    4.7   304     10.5   860.0    0.00     776    75.5
 151   14:20   78.5    18    4.3   321     11.6   859.8    0.00     663    75.7
 151   14:30   79.3    18    4.1   342      9.3   859.8    0.00     710    75.8
 151   14:40   79.2    17    3.7   358     10.1   859.7    0.00     431    76.0
 151   14:50   79.3    17    4.2   350      9.6   859.7    0.00      92    76.1
 151   15:00   79.9    16    4.1   339     11.3   859.6    0.00     493    76.0
 151   15:10   79.2    16    4.4   331     11.2   859.5    0.00     561    76.2
 151   15:20   78.7    16    6.4   359     12.2   859.5    0.00     497    76.3
 151   15:30   78.4    18    4.5     6      8.6   859.3    0.00     338    76.6
 151   15:40   77.7    17    5.2   327     11.8   859.3    0.00     193    76.7
 151   15:50   77.2    18    3.8   323      7.8   859.3    0.00     155    76.7
 151   16:00   77.3    18    5.8   345     11.2   859.3    0.00     447    76.8
 151   16:10   77.8    18    6.1   352     12.1   859.2    0.00     452    76.7
 151   16:20   77.9    17    5.3   353      9.9   859.2    0.00     134    76.7
 151   16:30   78.0    17    4.5   334     10.4   859.1    0.00     258    76.6
 151   16:40   78.2    16    5.3   359     13.1   859.2    0.00     419    76.6
 151   16:50   78.5    16    4.4   346     10.3   859.1    0.00     411    76.5
 151   17:00   78.6    16    5.3   345     10.8   859.1    0.00     390    76.5
 151   17:10   78.1    16    5.2   343     10.9   859.1    0.00     164    76.5
 151   17:20   77.8    15    6.9   353     12.9   859.1    0.00     154    76.4
 151   17:30   77.9    15    5.0   340     10.1   859.0    0.00      42    76.3
 151   17:40   77.6    15    6.0   343     13.9   859.0    0.00     199    76.3
 151   17:50   77.6    15    5.6   332     11.1   859.0    0.00     258    76.2
 151   18:00   77.5    15    5.3   346     15.3   859.0    0.00     239    76.1
 151   18:10   76.9    15    5.4   342     11.5   859.1    0.00     169    76.0
 151   18:20   77.1    14    4.4   346      9.6   859.1    0.00      49    75.9
 151   18:30   76.3    14    5.0   339      9.7   859.2    0.00      38    75.9
 151   18:40   75.6    16    4.5   342     11.1   859.2    0.00      51    75.8
 151   18:50   75.0    16    4.1   352     12.6   859.2    0.00      59    75.8
 151   19:00   74.3    17    3.2   348      6.4   859.2    0.00      55    75.7
 151   19:10   73.7    17    3.8   344      8.2   859.2    0.00      32    75.6
 151   19:20   73.1    17    3.2   336      6.1   859.2    0.00      29    75.6
 151   19:30   72.6    18    3.1   331      5.8   859.2    0.00      23    75.4
 151   19:40   72.0    20    2.4   334      5.5   859.3    0.00      17    75.4
 151   19:50   71.2    20    3.0   339      6.6   859.4    0.00      11    75.2
 151   20:00   70.7    20    2.8   335      5.6   859.4    0.00       3    75.2
 151   20:10   70.1    20    3.3   342      6.4   859.4    0.00       0    75.1
 151   20:20   69.5    20    3.7   344      7.6   859.5    0.00       0    74.9
 151   20:30   68.9    20    2.6   346      5.4   859.5    0.00       0    74.9
 151   20:40   68.0    21    2.8   358      6.4   859.6    0.00       0    74.7
 151   20:50   67.1    22    3.0   350      5.8   859.7    0.00       0    74.8
 151   21:00   66.3    23    2.5    16      5.0   859.8    0.00       0    74.5
 151   21:10   65.8    23    1.4   349      3.9   859.9    0.00       0    74.4
 151   21:20   65.6    25    1.8   343      4.8   860.0    0.00       0    74.1
 151   21:30   65.7    28    1.9   352      3.4   860.1    0.00       0    74.1
 151   21:40   65.2    31    1.5   345      3.2   860.3    0.00       0    74.0
 151   21:50   64.4    33    1.5   356      2.9   860.3    0.00       0    74.0
 151   22:00   64.0    35    1.8    12      4.5   860.3    0.00       0    73.8
 151   22:10   63.2    37    1.1    40      2.7   860.4    0.00       0    73.7
 151   22:20   62.4    37    1.5    51      3.4   860.4    0.00       0    73.6
 151   22:30   62.4    37    2.1    53      6.7   860.4    0.00       0    73.5
 151   22:40   63.9    33    2.9    25      8.4   860.4    0.00       0    73.5
 151   22:50   63.6    34    2.5    31      5.3   860.3    0.00       0    73.3
 151   23:00   62.8    35    2.0    24      4.3   860.4    0.00       0    73.1
 151   23:10   62.5    35    1.9    27      4.3   860.3    0.00       0    73.2
 151   23:20   62.6    34    1.8    12      4.0   860.2    0.00       0    72.9
 151   23:30   62.0    36    1.2    56      3.4   860.2    0.00       0    72.9
 151   23:40   60.8    37    1.3    52      3.0   860.3    0.00       0    72.7
 151   23:50   60.1    38    1.3    49      3.7   860.3    0.00       0    72.7
 152    0:00   60.3    37    1.7   341      3.3   860.3    0.00       0    72.7
 152    0:10   59.6    38    2.4   326      4.2   860.3    0.00       0    72.6
 152    0:20   57.9    41    2.0   327      3.7   860.4    0.00       0    72.6
 152    0:30   57.2    42    2.1   334      3.9   860.4    0.00       0    72.2
 152    0:40   56.7    43    1.9   324      3.5   860.4    0.00       0    72.4
 152    0:50   56.3    44    1.9   324      4.1   860.4    0.00       0    72.1
 152    1:00   55.6    46    2.3   320      3.8   860.4    0.00       0    72.1
 152    1:10   55.2    46    2.3   326      4.6   860.3    0.00       0    71.7
 152    1:20   54.9    46    2.5   338      4.7   860.3    0.00       0    72.0
 152    1:30   54.9    46    2.4   335      3.9   860.4    0.00       0    71.6
 152    1:40   54.9    45    1.9   341      4.6   860.4    0.00       0    71.6
 152    1:50   54.6    46    1.1   334      2.6   860.5    0.00       0    71.6
 152    2:00   53.6    50    1.6    11      3.2   860.6    0.00       0    71.6
 152    2:10   52.8    50    2.2   343      3.8   860.5    0.00       0    71.4
 152    2:20   52.9    49    2.2   328      3.9   860.6    0.00       0    71.3
 152    2:30   53.6    47    2.4   323      4.5   860.6    0.00       0    71.2
 152    2:40   54.3    45    2.2   333      3.4   860.5    0.00       0    71.2
 152    2:50   54.5    44    1.9   340      4.1   860.5    0.00       0    71.0
 152    3:00   54.7    44    1.5   359      4.5   860.6    0.00       0    71.0
 152    3:10   53.7    47    1.6    45      3.1   860.6    0.00       0    70.6
 152    3:20   53.5    46    2.0    20      4.3   860.6    0.00       0    70.7
 152    3:30   53.5    47    1.8    22      3.7   860.6    0.00       0    70.5
 152    3:40   54.4    44    2.4     7      4.7   860.6    0.00       0    70.5
 152    3:50   54.9    45    1.4    23      2.7   860.5    0.00       0    70.3
 152    4:00   54.6    46    1.8   360      3.6   860.6    0.00       0    70.2
 152    4:10   54.1    48    1.9     4      4.0   860.6    0.00       0    70.2
 152    4:20   53.3    49    1.6   345      3.2   860.6    0.00       0    69.9
 152    4:30   52.9    48    2.4   340      4.3   860.7    0.00       0    70.0
 152    4:40   52.1    50    1.8   355      4.0   860.8    0.00       0    69.9

Return to Delta, Utah graphs page.


Western Regional Climate Center,wrcc@dri.edu